Winborn, Mississippi
Current Conditions -  °F | °C
As of 4:55 PM on Thursday 20 Nov 2014 (Local Time) from KUOX Reporting Station
Broken Clouds Broken Clouds  
Wind Chill: 50°   Ceiling: 7000
Heat Index: 50°   Visibility: 10mi
Dew Point: 34°   Wind: 3mph
Humidity: 54%   Direction: 100°E
Pressure: 30.21"   Gusts: NA
Location:  34.5725°N, 89.3417°W
Report Text: KUOX 202255Z AUTO 10003KT 10SM BKN070 10/01 A3021 RMK AO2 PWINO PNO
Loading
Personal Weather Stations






























Interactive Weather Map New forecast layout! Learn more

10-Day Weather Forecast

Advertisements
Track Severe Weather on mobile